Time;durP1;ratioP1;P1;durP2;ratioP2;P2;SDS_P1;SDS_P2;PMS_P1;PMS_P2;Temp;Humidity;BMP_temperature;BMP_pressure;BME280_temperature;BME280_humidity;BME280_pressure;Samples;Min_cycle;Max_cycle;Signal;HPM_P1;HPM_P2
2021/12/31 00:02:33;;;;;;;23.35;6.78;;;;;;;12.69;97.35;101768.16;4998566;28;20447;-92
2021/12/31 00:05:04;;;;;;;20.70;6.40;;;;;;;12.76;96.90;101787.97;4991592;28;20450;-91
2021/12/31 00:07:30;;;;;;;18.70;6.00;;;;;;;12.80;96.58;101785.28;5008690;28;20281;-91
2021/12/31 00:10:01;;;;;;;19.83;6.20;;;;;;;12.69;96.54;101770.75;4995247;28;20068;-90
2021/12/31 00:12:32;;;;;;;15.38;5.50;;;;;;;12.72;96.80;101776.75;5013339;28;20506;-91
2021/12/31 00:15:06;;;;;;;18.88;6.13;;;;;;;12.74;97.22;101787.13;5009095;28;20022;-92
2021/12/31 00:17:35;;;;;;;16.77;5.55;;;;;;;12.71;96.96;101782.84;5008070;28;20729;-91
2021/12/31 00:20:22;;;;;;;14.77;5.80;;;;;;;12.66;96.86;101771.66;5003429;28;20168;-91
2021/12/31 00:23:06;;;;;;;16.75;5.40;;;;;;;12.72;96.03;101778.50;4990915;28;20025;-91
2021/12/31 00:25:35;;;;;;;17.88;5.57;;;;;;;12.81;96.04;101796.56;4977606;28;20062;-91
2021/12/31 00:28:04;;;;;;;20.27;5.90;;;;;;;12.78;95.72;101783.59;4991156;28;20041;-90
2021/12/31 00:30:59;;;;;;;19.15;5.30;;;;;;;12.83;95.62;101792.19;4983739;28;20241;-90
2021/12/31 00:33:32;;;;;;;13.23;4.80;;;;;;;12.77;94.91;101781.84;5009907;28;20070;-91
2021/12/31 00:35:58;;;;;;;17.35;5.28;;;;;;;12.79;95.18;101780.09;5020698;28;20029;-91
2021/12/31 00:38:23;;;;;;;16.77;5.07;;;;;;;12.82;95.20;101782.66;5032730;28;20097;-91
2021/12/31 00:40:55;;;;;;;15.38;5.10;;;;;;;12.84;95.36;101806.88;5009739;28;20228;-90
2021/12/31 00:43:23;;;;;;;17.15;5.43;;;;;;;12.75;95.38;101781.91;4996716;28;20037;-91
2021/12/31 00:46:05;;;;;;;17.88;5.38;;;;;;;12.79;95.02;101787.91;4996312;28;20403;-91
2021/12/31 00:48:36;;;;;;;14.65;5.22;;;;;;;12.83;95.40;101806.03;5006062;28;20029;-95
2021/12/31 00:51:10;;;;;;;14.13;5.22;;;;;;;12.75;95.14;101781.91;4999322;28;20113;-94
2021/12/31 00:53:48;;;;;;;14.90;5.07;;;;;;;12.78;94.65;101789.66;4994793;28;20025;-94
2021/12/31 00:56:24;;;;;;;13.45;5.40;;;;;;;12.77;94.96;101781.84;4994251;28;20026;-95
2021/12/31 00:58:52;;;;;;;14.63;5.15;;;;;;;12.76;94.64;101787.97;4991245;28;20033;-95
2021/12/31 01:01:22;;;;;;;17.73;5.35;;;;;;;12.81;94.84;101807.81;5000457;28;20117;-95
2021/12/31 01:03:58;;;;;;;15.40;5.35;;;;;;;12.81;95.26;101791.34;4993944;28;20403;-96
2021/12/31 01:06:24;;;;;;;16.48;5.07;;;;;;;12.80;94.72;101802.63;4981391;28;20172;-96
2021/12/31 01:08:52;;;;;;;11.65;5.03;;;;;;;12.76;94.63;101795.78;5012996;28;20030;-96
2021/12/31 01:11:20;;;;;;;14.25;5.20;;;;;;;12.70;94.91;101791.50;4994253;28;20029;-96
2021/12/31 01:13:56;;;;;;;12.88;5.05;;;;;;;12.72;94.39;101794.97;4994661;28;20030;-96
2021/12/31 01:16:25;;;;;;;13.60;4.50;;;;;;;12.73;94.85;101790.63;4993139;28;20026;-95
2021/12/31 01:21:28;;;;;;;15.05;4.90;;;;;;;12.83;93.71;101798.22;5001244;28;20038;-90
2021/12/31 01:23:58;;;;;;;15.18;4.85;;;;;;;12.77;94.16;101798.34;5011616;28;20032;-90
2021/12/31 01:26:32;;;;;;;14.43;5.05;;;;;;;12.77;94.32;101797.47;4993775;28;20501;-90
2021/12/31 01:29:05;;;;;;;13.38;4.82;;;;;;;12.76;94.32;101787.97;4986139;28;20453;-91
2021/12/31 01:31:34;;;;;;;12.38;4.95;;;;;;;12.70;93.73;101772.44;4993960;28;20490;-91
2021/12/31 01:33:59;;;;;;;15.50;5.30;;;;;;;12.80;93.81;101798.28;5011935;28;20033;-90
2021/12/31 01:36:36;;;;;;;13.60;4.93;;;;;;;12.74;93.82;101782.78;4993955;28;20033;-91
2021/12/31 01:39:09;;;;;;;16.23;4.78;;;;;;;12.74;94.31;101790.59;4993993;28;20037;-90
2021/12/31 01:41:36;;;;;;;16.08;4.68;;;;;;;12.72;93.84;101794.09;5009691;28;20113;-90
2021/12/31 01:44:06;;;;;;;14.50;5.05;;;;;;;12.72;93.40;101787.16;5014693;28;20079;-90
2021/12/31 01:46:33;;;;;;;14.18;5.28;;;;;;;12.69;93.59;101787.22;5001770;28;20057;-91
2021/12/31 01:49:03;;;;;;;15.20;4.70;;;;;;;12.66;94.11;101788.13;4993824;28;20045;-90
2021/12/31 01:51:32;;;;;;;14.27;4.55;;;;;;;12.66;93.57;101798.53;4993491;28;20022;-90
2021/12/31 01:54:00;;;;;;;15.02;4.80;;;;;;;12.68;93.68;101801.13;4993543;28;20092;-90
2021/12/31 01:56:35;;;;;;;15.00;4.90;;;;;;;12.76;93.93;101814.00;4992985;28;20533;-91
2021/12/31 01:59:11;;;;;;;16.80;4.80;;;;;;;12.71;94.22;101810.59;4993363;28;20133;-94
2021/12/31 02:01:36;;;;;;;13.68;5.10;;;;;;;12.65;93.91;101812.41;4993175;28;20061;-95
2021/12/31 02:04:05;;;;;;;14.23;4.60;;;;;;;12.75;93.91;101833.94;5020315;28;20060;-95
2021/12/31 02:06:35;;;;;;;15.32;4.75;;;;;;;12.65;93.72;101817.63;4993438;28;20105;-95
2021/12/31 02:09:07;;;;;;;16.75;5.03;;;;;;;12.65;93.00;101808.94;4997471;28;20168;-95
2021/12/31 02:11:39;;;;;;;17.15;4.70;;;;;;;12.73;92.69;101825.31;4992960;28;20025;-94
2021/12/31 02:14:10;;;;;;;11.30;4.93;;;;;;;12.66;93.57;101819.34;4987767;28;20036;-95
2021/12/31 02:16:38;;;;;;;13.68;4.95;;;;;;;12.72;93.52;101826.19;4990684;28;20443;-95
2021/12/31 02:19:11;;;;;;;13.93;4.63;;;;;;;12.71;93.12;101823.59;4993454;28;20494;-95
2021/12/31 02:21:39;;;;;;;11.52;4.05;;;;;;;12.70;93.44;101814.06;5014800;28;20042;-95
2021/12/31 02:24:07;;;;;;;12.85;4.97;;;;;;;12.69;92.54;101796.78;5017549;28;20017;-95
2021/12/31 02:26:42;;;;;;;12.73;4.57;;;;;;;12.78;92.73;101814.81;4974681;28;20177;-95
2021/12/31 02:29:18;;;;;;;11.35;4.50;;;;;;;12.69;93.15;101802.84;5005077;28;20029;-90
2021/12/31 02:31:49;;;;;;;13.35;4.38;;;;;;;12.71;92.84;101801.03;4994951;28;20026;-91
2021/12/31 02:34:17;;;;;;;13.68;4.57;;;;;;;12.66;92.42;101790.72;5003913;28;20107;-91
2021/12/31 02:36:42;;;;;;;15.15;4.70;;;;;;;12.66;92.88;101802.88;5010106;28;20026;-90
2021/12/31 02:39:08;;;;;;;11.05;4.40;;;;;;;12.69;92.82;101789.81;4993110;28;20030;-91
2021/12/31 02:41:36;;;;;;;17.23;4.60;;;;;;;12.77;92.22;101807.88;5012257;28;20058;-91
2021/12/31 02:44:02;;;;;;;15.88;4.63;;;;;;;12.69;92.04;101795.03;5004294;28;20041;-91
2021/12/31 02:46:29;;;;;;;16.75;4.72;;;;;;;12.68;92.68;101788.09;5000308;28;20050;-91
2021/12/31 02:48:58;;;;;;;15.55;4.20;;;;;;;12.74;92.65;101794.94;4991940;28;20038;-90
2021/12/31 02:51:25;;;;;;;14.80;4.65;;;;;;;12.69;92.38;101796.78;5010020;28;20153;-91
2021/12/31 02:53:56;;;;;;;12.73;4.60;;;;;;;12.69;92.48;101794.16;4992423;28;20041;-91
2021/12/31 02:56:24;;;;;;;18.13;4.15;;;;;;;12.67;92.03;101788.97;5009127;28;20112;-91
2021/12/31 02:58:50;;;;;;;17.90;4.82;;;;;;;12.64;91.63;101781.22;4997561;28;20112;-91
2021/12/31 03:01:22;;;;;;;10.50;4.40;;;;;;;12.70;92.05;101782.84;5006592;28;20034;-91
2021/12/31 03:03:49;;;;;;;16.88;4.88;;;;;;;12.66;92.16;101782.06;5015815;28;20038;-90
2021/12/31 03:06:16;;;;;;;15.45;4.80;;;;;;;12.62;92.37;101775.22;5003003;28;20065;-90
2021/12/31 03:08:48;;;;;;;10.20;5.15;;;;;;;12.63;92.43;101782.09;4996830;28;20729;-90
2021/12/31 03:11:21;;;;;;;17.25;4.97;;;;;;;12.61;91.78;101776.09;4992223;28;20034;-90
2021/12/31 03:13:54;;;;;;;12.18;4.50;;;;;;;12.63;92.01;101780.34;4992607;28;20033;-91
2021/12/31 03:16:23;;;;;;;14.75;5.10;;;;;;;12.61;92.41;101779.56;5009535;28;20352;-90
2021/12/31 03:18:54;;;;;;;15.20;5.03;;;;;;;12.65;92.05;101782.94;4992412;28;20049;-91
2021/12/31 03:21:23;;;;;;;13.20;4.93;;;;;;;12.64;91.95;101778.63;4995506;28;20465;-90
2021/12/31 03:23:52;;;;;;;13.95;4.68;;;;;;;12.69;92.28;101783.75;5010413;28;20068;-90
2021/12/31 03:26:21;;;;;;;13.77;4.60;;;;;;;12.65;92.53;101789.00;4992177;28;20057;-91
2021/12/31 03:28:53;;;;;;;13.70;4.90;;;;;;;12.64;92.89;101789.88;5010053;28;20093;-90
2021/12/31 03:31:21;;;;;;;14.00;4.90;;;;;;;12.60;92.47;101783.03;4992274;28;20146;-90
2021/12/31 03:33:46;;;;;;;13.20;5.13;;;;;;;12.51;92.57;101764.97;4992456;28;20026;-91
2021/12/31 03:36:17;;;;;;;18.60;5.13;;;;;;;12.53;92.39;101775.34;4995145;28;20047;-90
2021/12/31 03:38:46;;;;;;;16.48;5.07;;;;;;;12.45;93.15;101764.22;5009546;28;20488;-90
2021/12/31 03:41:11;;;;;;;15.25;5.00;;;;;;;12.45;92.75;101772.88;5000185;28;20026;-91
2021/12/31 03:43:37;;;;;;;10.75;4.88;;;;;;;12.43;93.09;101774.63;5009639;28;20041;-91
2021/12/31 03:46:07;;;;;;;14.40;5.18;;;;;;;12.38;92.74;101758.25;4991097;28;20046;-91
2021/12/31 03:48:36;;;;;;;12.60;4.65;;;;;;;12.39;92.45;101782.53;4991287;28;20018;-90
2021/12/31 03:51:02;;;;;;;14.63;5.30;;;;;;;12.36;93.07;101773.00;4994966;28;20541;-90
2021/12/31 03:53:33;;;;;;;8.93;4.80;;;;;;;12.38;93.26;101783.41;5001593;28;20104;-90
2021/12/31 03:56:04;;;;;;;12.73;5.10;;;;;;;12.32;93.26;101771.38;5010055;28;20037;-90
2021/12/31 03:58:32;;;;;;;13.20;5.00;;;;;;;12.34;93.03;101769.59;4991598;28;20065;-91
2021/12/31 04:01:02;;;;;;;13.73;4.97;;;;;;;12.21;93.25;101755.09;4992216;28;20105;-90
2021/12/31 04:03:30;;;;;;;14.15;5.00;;;;;;;12.23;93.60;101761.97;4991658;28;20029;-91
2021/12/31 04:05:56;;;;;;;13.35;4.90;;;;;;;12.32;93.16;101773.09;4994373;28;20201;-91
2021/12/31 04:08:21;;;;;;;14.85;5.25;;;;;;;12.26;93.25;101767.13;4995096;28;20036;-90
2021/12/31 04:10:47;;;;;;;16.48;5.15;;;;;;;12.22;93.27;101755.03;4995791;28;20034;-90
2021/12/31 04:13:23;;;;;;;13.50;5.53;;;;;;;12.21;93.57;101755.91;4994478;28;20037;-90
2021/12/31 04:15:51;;;;;;;15.43;5.10;;;;;;;12.25;93.35;101761.94;5025142;28;20072;-90
2021/12/31 04:18:20;;;;;;;15.80;5.82;;;;;;;12.31;93.60;101771.38;4995206;28;20033;-91
2021/12/31 04:20:49;;;;;;;16.05;5.00;;;;;;;12.29;93.73;101779.19;4995533;28;20157;-90
2021/12/31 04:23:26;;;;;;;14.50;5.32;;;;;;;12.20;93.51;101759.44;5019374;28;20059;-91
2021/12/31 04:25:58;;;;;;;16.48;5.40;;;;;;;12.31;93.30;101771.38;4997378;28;20505;-91
2021/12/31 04:28:27;;;;;;;13.73;5.07;;;;;;;12.27;93.27;101762.78;4994775;28;20074;-91
2021/12/31 04:30:54;;;;;;;14.73;5.15;;;;;;;12.28;93.32;101760.13;4995218;28;20057;-90
2021/12/31 04:33:19;;;;;;;15.10;5.70;;;;;;;12.26;93.26;101750.66;4994218;28;20177;-90
2021/12/31 04:35:45;;;;;;;14.98;5.40;;;;;;;12.37;92.66;101763.47;5005886;28;20109;-90
2021/12/31 04:38:11;;;;;;;21.27;5.55;;;;;;;12.30;93.48;101754.91;4993706;28;20034;-91
2021/12/31 04:40:39;;;;;;;15.13;5.50;;;;;;;12.28;93.24;101749.75;5013318;28;20066;-91
2021/12/31 04:43:05;;;;;;;13.70;5.45;;;;;;;12.29;92.78;101732.41;4994512;28;20038;-90
2021/12/31 04:45:30;;;;;;;13.18;5.45;;;;;;;12.33;93.23;101739.28;5011753;28;20054;-91
2021/12/31 04:47:59;;;;;;;18.55;5.72;;;;;;;12.37;92.67;101740.06;4994902;28;20042;-90
2021/12/31 04:50:38;;;;;;;14.30;5.68;;;;;;;12.36;92.49;101736.63;4994904;28;20026;-91
2021/12/31 04:53:07;;;;;;;17.10;5.70;;;;;;;12.44;92.54;101750.34;4994752;28;20033;-90
2021/12/31 04:55:35;;;;;;;16.80;5.85;;;;;;;12.37;92.70;101730.53;5008508;28;20482;-91
2021/12/31 04:58:02;;;;;;;13.80;5.93;;;;;;;12.41;91.81;101728.75;4994803;28;20466;-90
2021/12/31 05:00:30;;;;;;;14.18;6.07;;;;;;;12.39;92.34;101733.13;5001182;28;20561;-91
2021/12/31 05:03:09;;;;;;;15.45;6.18;;;;;;;12.40;92.16;101738.31;4994735;28;20509;-91
2021/12/31 05:05:38;;;;;;;13.77;5.38;;;;;;;12.46;91.26;101740.78;4992865;28;20107;-90
2021/12/31 05:08:04;;;;;;;20.25;6.00;;;;;;;12.40;91.69;101737.44;4994326;28;20471;-91
2021/12/31 05:10:33;;;;;;;16.02;6.20;;;;;;;12.50;91.55;101750.25;4994434;28;20088;-90
2021/12/31 05:13:04;;;;;;;15.38;6.10;;;;;;;12.48;91.23;101749.44;5004893;28;20056;-91
2021/12/31 05:15:34;;;;;;;12.90;5.50;;;;;;;12.44;91.33;101747.75;5007354;28;20022;-90
2021/12/31 05:18:02;;;;;;;17.33;6.40;;;;;;;12.45;91.48;101751.22;4994431;28;20107;-91
2021/12/31 05:20:31;;;;;;;18.55;5.82;;;;;;;12.38;91.63;101745.25;4998996;28;20033;-90
2021/12/31 05:23:04;;;;;;;14.77;6.18;;;;;;;12.48;91.16;101754.63;5010355;28;20114;-90
2021/12/31 05:25:34;;;;;;;18.85;6.30;;;;;;;12.47;90.74;101746.84;5014172;28;20042;-90
2021/12/31 05:28:02;;;;;;;16.95;5.78;;;;;;;12.43;90.79;101733.03;4993905;28;20029;-91
2021/12/31 05:30:31;;;;;;;14.65;6.00;;;;;;;12.38;91.10;101719.25;4994209;28;20413;-90
2021/12/31 05:32:56;;;;;;;17.65;5.85;;;;;;;12.38;90.60;101721.00;5012513;28;20649;-90
2021/12/31 05:35:27;;;;;;;19.08;5.88;;;;;;;12.42;90.87;101717.47;5014523;28;20084;-90
2021/12/31 05:37:53;;;;;;;15.68;5.47;;;;;;;12.39;90.99;101720.97;4997267;28;20164;-91
2021/12/31 05:40:18;;;;;;;17.52;5.80;;;;;;;12.41;90.30;101720.97;5007954;28;20026;-95
2021/12/31 05:42:53;;;;;;;16.45;5.38;;;;;;;12.30;90.91;101702.94;4994810;28;20140;-96
2021/12/31 05:45:24;;;;;;;15.77;6.00;;;;;;;12.25;90.84;101697.81;5013453;28;20033;-96
2021/12/31 05:47:53;;;;;;;10.98;5.05;;;;;;;12.26;90.63;101698.69;4983880;28;20050;-95
2021/12/31 05:50:28;;;;;;;12.52;5.45;;;;;;;12.18;91.30;101693.59;4986400;28;20094;-95
2021/12/31 05:53:01;;;;;;;15.98;5.57;;;;;;;12.17;90.93;101691.03;4974423;28;20574;-95
2021/12/31 05:55:27;;;;;;;13.32;5.45;;;;;;;12.02;91.31;101678.28;4967727;28;20027;-96
2021/12/31 05:58:01;;;;;;;13.13;5.30;;;;;;;11.98;91.68;101693.06;4968488;28;20031;-95
2021/12/31 06:00:29;;;;;;;13.18;5.40;;;;;;;11.85;91.88;101697.59;4992155;28;20026;-95
2021/12/31 06:02:58;;;;;;;17.55;5.43;;;;;;;11.76;92.09;101694.28;4973425;28;20041;-95
2021/12/31 06:05:25;;;;;;;13.48;5.05;;;;;;;11.69;91.90;101695.22;4988984;28;20395;-94
2021/12/31 06:07:57;;;;;;;14.38;5.88;;;;;;;11.64;92.13;101692.69;4991214;28;20026;-95
2021/12/31 06:10:24;;;;;;;16.02;5.90;;;;;;;11.63;92.22;101690.97;4965322;28;20046;-95
2021/12/31 06:12:59;;;;;;;17.70;5.22;;;;;;;11.67;92.47;101709.97;4970090;28;20388;-95
2021/12/31 06:15:29;;;;;;;12.00;5.20;;;;;;;11.63;92.27;101709.16;4973848;28;20037;-95
2021/12/31 06:17:54;;;;;;;16.10;5.65;;;;;;;11.52;92.45;101707.59;4986679;28;20518;-94
2021/12/31 06:20:51;;;;;;;11.98;5.30;;;;;;;11.53;92.84;101725.75;4955404;28;20167;-94
2021/12/31 06:23:18;;;;;;;14.88;5.40;;;;;;;11.42;93.09;101732.78;4981024;28;20547;-94
2021/12/31 06:25:46;;;;;;;13.57;5.65;;;;;;;11.36;93.30;101725.09;4996462;28;20030;-95
2021/12/31 06:28:12;;;;;;;13.05;5.30;;;;;;;11.36;93.11;101730.28;4985459;28;20035;-95
2021/12/31 06:30:37;;;;;;;13.05;5.13;;;;;;;11.28;93.35;101722.59;4965011;28;20026;-95
2021/12/31 06:33:03;;;;;;;15.27;5.40;;;;;;;11.34;93.56;101753.66;4986780;28;20031;-95
2021/12/31 06:35:28;;;;;;;17.05;5.53;;;;;;;11.21;93.44;101714.91;4981256;28;20042;-95
2021/12/31 06:37:55;;;;;;;11.60;5.18;;;;;;;11.28;93.74;101730.38;4966290;28;20471;-94
2021/12/31 06:40:47;;;;;;;11.60;5.30;;;;;;;11.18;93.95;101726.19;4973321;28;20022;-89
2021/12/31 06:43:28;;;;;;;11.25;4.68;;;;;;;11.15;93.93;101730.53;4955200;28;20550;-90
2021/12/31 06:46:02;;;;;;;10.32;5.07;;;;;;;11.12;94.47;101736.66;4969214;28;20049;-89
2021/12/31 06:49:03;;;;;;;17.45;5.40;;;;;;;11.06;94.53;101731.50;4973477;28;20494;-90
2021/12/31 06:51:41;;;;;;;14.73;5.30;;;;;;;10.98;94.83;101731.63;5001269;28;20034;-90
2021/12/31 06:54:16;;;;;;;10.70;5.00;;;;;;;10.97;94.65;101748.06;4967017;28;20045;-90
2021/12/31 06:56:41;;;;;;;16.13;5.00;;;;;;;10.95;94.76;101743.75;4969965;28;20038;-90
2021/12/31 06:59:24;;;;;;;13.05;5.43;;;;;;;10.92;94.95;101744.63;4972792;28;20030;-90
2021/12/31 07:02:18;;;;;;;11.40;4.93;;;;;;;10.84;94.85;101741.28;4972622;28;20604;-90
2021/12/31 07:04:43;;;;;;;11.55;5.10;;;;;;;10.74;95.12;101737.03;4971138;28;20410;-90
2021/12/31 07:07:09;;;;;;;15.68;5.68;;;;;;;10.72;95.41;101730.16;4986529;28;20026;-89
2021/12/31 07:09:34;;;;;;;15.25;5.60;;;;;;;10.77;95.50;101759.50;4973010;28;20035;-90
2021/12/31 07:11:59;;;;;;;16.17;5.60;;;;;;;10.69;95.66;101751.78;4991269;28;20046;-90
2021/12/31 07:14:28;;;;;;;14.63;5.55;;;;;;;10.63;95.60;101741.50;4983675;28;20038;-91
2021/12/31 07:16:55;;;;;;;12.98;5.40;;;;;;;10.61;95.90;101741.50;4995138;28;20109;-90
2021/12/31 07:19:23;;;;;;;13.52;5.43;;;;;;;10.73;95.99;101750.88;4978089;28;20058;-90
2021/12/31 07:21:51;;;;;;;16.25;5.95;;;;;;;10.70;95.82;101745.75;4974979;28;20041;-89
2021/12/31 07:24:17;;;;;;;11.60;5.45;;;;;;;10.59;95.70;101725.09;4975432;28;20061;-89
2021/12/31 07:26:45;;;;;;;15.90;5.47;;;;;;;10.60;95.83;101738.91;4983474;28;20026;-90
2021/12/31 07:29:14;;;;;;;14.73;5.60;;;;;;;10.66;95.95;101741.44;4973173;28;20097;-90
2021/12/31 07:31:40;;;;;;;16.30;5.57;;;;;;;10.68;95.99;101753.53;4971012;28;20122;-89
2021/12/31 07:34:07;;;;;;;19.13;6.28;;;;;;;10.70;96.32;101756.13;4974494;28;20349;-90
2021/12/31 07:36:33;;;;;;;12.48;5.50;;;;;;;10.64;95.87;101745.81;4990834;28;20122;-90
2021/12/31 07:39:07;;;;;;;16.40;5.85;;;;;;;10.64;95.95;101743.22;4973903;28;20454;-95
2021/12/31 07:41:35;;;;;;;;;;;;;;;10.68;95.85;101757.84;4977207;28;20552;-95
2021/12/31 07:44:01;;;;;;;15.77;5.90;;;;;;;10.55;95.93;101748.47;4974215;28;20383;-96
2021/12/31 07:46:27;;;;;;;15.98;5.72;;;;;;;10.62;96.06;101761.38;5003070;28;20080;-95
2021/12/31 07:48:52;;;;;;;14.23;5.72;;;;;;;10.64;95.98;101758.78;5009555;28;20026;-95
2021/12/31 07:51:21;;;;;;;13.88;5.90;;;;;;;10.55;95.97;101754.53;4997351;28;20104;-94
2021/12/31 07:53:47;;;;;;;14.45;5.90;;;;;;;10.61;95.92;101763.97;4996091;28;20038;-94
2021/12/31 07:56:12;;;;;;;15.23;6.15;;;;;;;10.52;95.85;101743.31;5013806;28;20026;-95
2021/12/31 07:58:40;;;;;;;15.45;5.95;;;;;;;10.48;96.22;101747.66;4997390;28;20034;-95
2021/12/31 08:01:25;;;;;;;16.73;5.93;;;;;;;10.58;96.51;101758.78;4985251;28;20029;-94
2021/12/31 08:04:02;;;;;;;16.75;5.72;;;;;;;10.50;96.23;101752.84;5012520;28;20018;-94
2021/12/31 08:06:33;;;;;;;13.45;5.65;;;;;;;10.59;95.99;101770.88;5020360;28;20014;-95
2021/12/31 08:09:02;;;;;;;13.70;5.55;;;;;;;10.55;96.18;101767.47;5021825;28;20045;-88
2021/12/31 08:11:51;;;;;;;12.77;5.60;;;;;;;10.54;96.03;101767.47;5004645;28;20034;-90
2021/12/31 08:14:40;;;;;;;17.67;5.70;;;;;;;10.57;95.81;101764.88;4996438;28;20497;-90
2021/12/31 08:17:16;;;;;;;13.00;5.20;;;;;;;10.66;95.39;101778.59;4994812;28;20489;-90
2021/12/31 08:20:03;;;;;;;15.63;5.70;;;;;;;10.71;95.24;101776.00;4995233;28;20092;-89
2021/12/31 08:22:32;;;;;;;10.90;5.47;;;;;;;10.67;95.76;101759.59;5013080;28;20053;-89
2021/12/31 08:25:02;;;;;;;12.05;5.32;;;;;;;10.71;95.02;101762.16;4995711;28;20025;-89
2021/12/31 08:27:36;;;;;;;15.45;5.85;;;;;;;10.66;94.90;101751.81;5012925;28;20454;-90
2021/12/31 08:30:01;;;;;;;11.98;5.47;;;;;;;10.70;94.75;101750.94;4985389;28;20034;-90
2021/12/31 08:32:34;;;;;;;13.27;5.20;;;;;;;10.77;93.96;101750.00;5012988;28;20170;-89
2021/12/31 08:39:38;;;;;;;;;;;;;;;;;;;;;
2021/12/31 08:42:21;;;;;;;12.93;4.72;;;;;;;10.87;93.57;101767.16;5012643;28;20033;-91
2021/12/31 08:44:58;;;;;;;14.48;4.95;;;;;;;10.99;92.58;101760.97;4994966;28;20034;-92
2021/12/31 08:48:08;;;;;;;10.85;4.95;;;;;;;11.04;93.08;101773.06;5001941;28;20046;-91
2021/12/31 08:50:42;;;;;;;10.75;4.35;;;;;;;11.03;92.38;101754.91;4969667;28;20112;-91
2021/12/31 08:53:20;;;;;;;14.20;5.05;;;;;;;11.05;92.36;101761.78;4973226;28;20121;-90
2021/12/31 08:55:57;;;;;;;11.48;4.43;;;;;;;11.20;91.60;101759.88;4992493;28;20018;-90
2021/12/31 08:58:28;;;;;;;13.00;4.85;;;;;;;11.24;91.95;101751.22;4990321;28;20026;-91
2021/12/31 09:01:19;;;;;;;;;;;;;;;;;;;;;
2021/12/31 09:03:50;;;;;;;10.07;4.32;;;;;;;11.36;90.25;101732.88;4981033;28;20036;-92
2021/12/31 09:07:00;;;;;;;12.43;4.40;;;;;;;11.43;90.84;101732.78;4974367;28;20053;-90
2021/12/31 09:12:32;;;;;;;11.15;4.05;;;;;;;11.53;89.66;101736.13;4992702;28;20038;-91
2021/12/31 09:15:10;;;;;;;;;;;;;;;11.67;90.95;101746.34;4973270;28;20515;-92
2021/12/31 09:17:55;;;;;;;10.77;4.43;;;;;;;11.72;89.03;101752.31;4975664;28;20342;-90
2021/12/31 09:20:21;;;;;;;10.13;4.50;;;;;;;11.76;88.15;101762.66;4975576;28;20101;-94
2021/12/31 09:22:50;;;;;;;9.80;4.05;;;;;;;11.70;88.41;101749.72;4997450;28;20472;-95
2021/12/31 09:25:16;;;;;;;15.13;4.53;;;;;;;11.73;87.95;101738.47;4975515;28;20049;-94
2021/12/31 09:28:02;;;;;;;11.32;4.38;;;;;;;11.82;88.35;101762.56;4974900;28;20439;-95
2021/12/31 09:30:31;;;;;;;13.07;4.78;;;;;;;11.86;88.33;101758.22;4975345;28;20106;-94
2021/12/31 09:33:02;;;;;;;10.95;4.07;;;;;;;11.86;88.74;101737.44;4985314;28;20098;-95
2021/12/31 09:38:59;;;;;;;11.38;4.13;;;;;;;11.93;87.51;101739.06;4991856;28;20077;-94
2021/12/31 09:41:27;;;;;;;9.95;4.03;;;;;;;12.03;87.02;101773.53;4974201;28;20092;-95
2021/12/31 09:46:55;;;;;;;12.13;4.47;;;;;;;11.86;87.59;101771.19;4997571;28;20049;-94
2021/12/31 09:49:39;;;;;;;11.65;4.38;;;;;;;11.96;86.59;101783.16;4990975;28;20042;-91
2021/12/31 09:52:09;;;;;;;9.23;4.10;;;;;;;11.86;87.23;101764.28;5007626;28;20037;-91
2021/12/31 09:54:42;;;;;;;10.18;3.97;;;;;;;12.00;86.61;101784.00;4996009;28;20039;-91
2021/12/31 09:57:17;;;;;;;8.43;3.78;;;;;;;12.09;86.21;101802.91;4991601;28;20022;-90
2021/12/31 10:00:00;;;;;;;10.75;4.20;;;;;;;12.10;87.42;101799.41;4985305;28;20113;-90
2021/12/31 10:02:42;;;;;;;10.23;4.10;;;;;;;12.15;86.74;101787.22;5010829;28;20022;-91
2021/12/31 10:05:12;;;;;;;11.00;4.20;;;;;;;12.34;86.07;101810.34;5011985;28;20030;-90
2021/12/31 10:07:53;;;;;;;9.40;4.15;;;;;;;12.29;86.40;101781.78;4993059;28;20026;-90
2021/12/31 10:10:25;;;;;;;9.88;4.20;;;;;;;12.38;85.11;101797.25;4993672;28;20494;-90
2021/12/31 10:13:01;;;;;;;11.48;3.90;;;;;;;12.40;84.95;101782.50;4991872;28;20381;-90
2021/12/31 10:15:49;;;;;;;12.85;4.60;;;;;;;12.27;85.24;101787.03;5011260;28;20557;-91
2021/12/31 10:18:30;;;;;;;14.25;4.80;;;;;;;12.26;85.30;101803.53;4992392;28;20038;-91
2021/12/31 10:21:15;;;;;;;9.85;4.45;;;;;;;12.19;86.44;101795.84;5011575;28;20045;-91
2021/12/31 10:34:26;;;;;;;11.93;4.40;;;;;;;12.16;87.43;101764.69;5103599;27;1237416;-79
2021/12/31 10:36:51;;;;;;;10.18;4.18;;;;;;;12.22;86.90;101762.84;5126140;27;20065;-79
2021/12/31 10:39:24;;;;;;;8.63;4.03;;;;;;;12.31;85.94;101764.44;5117834;28;20103;-79
2021/12/31 10:42:13;;;;;;;9.82;4.32;;;;;;;12.37;86.66;101777.34;5107643;28;20104;-79
2021/12/31 10:44:50;;;;;;;10.85;4.28;;;;;;;12.42;85.94;101770.31;5126530;28;20521;-79
2021/12/31 10:47:18;;;;;;;10.57;4.53;;;;;;;12.52;85.85;101769.28;5120690;28;20202;-79
2021/12/31 10:50:02;;;;;;;10.07;4.35;;;;;;;12.56;85.55;101764.88;5118041;27;20040;-79
2021/12/31 10:52:52;;;;;;;8.48;4.22;;;;;;;12.54;85.07;101772.72;5122098;28;20027;-79
2021/12/31 10:57:49;;;;;;;7.68;4.25;;;;;;;12.47;85.16;101771.13;5111850;28;20100;-79
2021/12/31 11:00:16;;;;;;;15.20;4.38;;;;;;;12.52;84.78;101778.84;5122306;28;20053;-79
2021/12/31 11:02:42;;;;;;;11.88;4.72;;;;;;;12.53;84.10;101799.63;5126668;28;20027;-79
2021/12/31 11:05:10;;;;;;;10.27;4.30;;;;;;;12.55;84.95;101776.19;5107658;28;20025;-79
2021/12/31 11:07:37;;;;;;;11.20;4.47;;;;;;;12.59;83.98;101783.91;5126683;28;20031;-79
2021/12/31 11:10:04;;;;;;;11.68;4.50;;;;;;;12.64;83.98;101773.41;5126491;28;20047;-85
2021/12/31 11:12:30;;;;;;;9.27;4.10;;;;;;;12.72;83.67;101766.34;5107623;28;20020;-86
2021/12/31 11:14:56;;;;;;;10.38;4.82;;;;;;;12.81;84.07;101766.19;5125574;27;20028;-85
2021/12/31 11:17:22;;;;;;;13.63;5.20;;;;;;;12.84;83.42;101749.66;5126222;28;20390;-87
2021/12/31 11:19:49;;;;;;;12.40;4.68;;;;;;;12.74;83.58;101727.28;5125888;28;20028;-88
2021/12/31 11:22:17;;;;;;;10.15;4.57;;;;;;;12.71;83.62;101746.41;5088006;28;20024;-88
2021/12/31 11:24:44;;;;;;;11.95;4.68;;;;;;;12.74;84.27;101748.13;5117747;28;20498;-87
2021/12/31 11:27:31;;;;;;;14.07;5.10;;;;;;;12.79;85.10;101735.88;5113820;28;20655;-87
2021/12/31 11:29:59;;;;;;;10.63;4.78;;;;;;;12.84;83.23;101728.81;5107505;28;20035;-88
2021/12/31 11:32:42;;;;;;;11.45;4.35;;;;;;;12.87;84.60;101715.78;5105461;28;20442;-87
2021/12/31 11:35:28;;;;;;;9.00;4.43;;;;;;;12.90;84.79;101698.34;5110019;28;21297;-86
2021/12/31 11:37:54;;;;;;;13.43;5.40;;;;;;;12.90;82.69;101695.75;5107562;28;20020;-87
2021/12/31 11:40:52;;;;;;;11.70;5.00;;;;;;;12.90;84.28;101702.69;5112239;28;20032;-86
2021/12/31 11:43:25;;;;;;;14.35;4.93;;;;;;;12.87;83.25;101692.34;5086805;28;20036;-87
2021/12/31 11:46:09;;;;;;;11.80;5.10;;;;;;;12.91;84.72;101688.78;5112421;28;20039;-87
2021/12/31 11:48:47;;;;;;;12.02;5.18;;;;;;;12.93;84.02;101684.41;5110484;27;20099;-86
2021/12/31 11:51:20;;;;;;;8.70;4.63;;;;;;;12.94;83.28;101699.16;5083951;28;20122;-86
2021/12/31 11:53:58;;;;;;;10.05;4.65;;;;;;;12.95;84.06;101706.94;5111893;28;20446;-87
2021/12/31 11:56:32;;;;;;;16.58;4.88;;;;;;;12.99;83.73;101712.94;5111858;28;20370;-87
2021/12/31 11:58:57;;;;;;;11.70;4.70;;;;;;;12.94;83.13;101701.75;5100818;28;20126;-87
2021/12/31 12:01:48;;;;;;;11.73;5.25;;;;;;;12.96;84.75;101719.06;5111975;28;20396;-87
2021/12/31 12:04:35;;;;;;;11.10;4.82;;;;;;;13.08;84.46;101725.78;5111936;28;20019;-87
2021/12/31 12:07:38;;;;;;;14.10;5.07;;;;;;;13.26;84.56;101712.41;5111922;28;20035;-87
2021/12/31 12:10:03;;;;;;;14.38;5.10;;;;;;;13.40;82.01;101693.88;5111869;28;20088;-88
2021/12/31 12:12:34;;;;;;;12.43;4.60;;;;;;;13.47;81.88;101712.84;5111478;28;20028;-87
2021/12/31 12:15:01;;;;;;;12.95;5.07;;;;;;;13.57;81.54;101702.19;5111721;28;20104;-87